Time;durP1;ratioP1;P1;durP2;ratioP2;P2;SDS_P1;SDS_P2;PMS_P1;PMS_P2;Temp;Humidity;BMP_temperature;BMP_pressure;BME280_temperature;BME280_humidity;BME280_pressure;Samples;Min_cycle;Max_cycle;Signal;HPM_P1;HPM_P2
2023/08/29 00:00:19;;;;;;;3.47;0.55;;;14.50;99.90;;;;;;5042007;28;20029;-84
2023/08/29 00:02:45;;;;;;;1.65;0.77;;;;;;;;;;5042258;28;20035;-84
2023/08/29 00:05:12;;;;;;;2.42;1.23;;;;;;;;;;5048963;28;20029;-84
2023/08/29 00:07:38;;;;;;;2.30;0.90;;;13.40;99.90;;;;;;5047611;28;20044;-84
2023/08/29 00:10:04;;;;;;;1.52;0.85;;;;;;;;;;5048977;28;20029;-83
2023/08/29 00:12:32;;;;;;;1.52;0.77;;;;;;;;;;5065792;28;20047;-84
2023/08/29 00:14:57;;;;;;;1.83;0.75;;;;;;;;;;5059350;28;20020;-84
2023/08/29 00:17:23;;;;;;;3.50;0.75;;;;;;;;;;5047063;28;20042;-84
2023/08/29 00:19:49;;;;;;;2.35;0.75;;;;;;;;;;5043322;28;20416;-84
2023/08/29 00:22:15;;;;;;;2.33;0.73;;;;;;;;;;5047536;28;20025;-84
2023/08/29 00:24:44;;;;;;;1.70;0.73;;;;;;;;;;5046029;28;20040;-84
2023/08/29 00:27:10;;;;;;;0.93;0.65;;;;;;;;;;5042662;28;20131;-85
2023/08/29 00:29:36;;;;;;;1.42;0.75;;;13.90;99.90;;;;;;5043718;28;20037;-85
2023/08/29 00:32:01;;;;;;;4.88;0.82;;;14.30;99.90;;;;;;5046228;28;20032;-84
2023/08/29 00:34:27;;;;;;;2.42;1.20;;;;;;;;;;5045367;28;20044;-85
2023/08/29 00:36:53;;;;;;;3.25;0.70;;;;;;;;;;5044702;28;20484;-84
2023/08/29 00:39:19;;;;;;;1.63;0.85;;;;;;;;;;5045625;28;20026;-84
2023/08/29 00:41:49;;;;;;;2.08;0.82;;;;;;;;;;5048852;28;20033;-84
2023/08/29 00:44:15;;;;;;;1.48;0.80;;;;;;;;;;5046438;28;20102;-84
2023/08/29 00:46:41;;;;;;;2.47;1.35;;;;;;;;;;5045033;28;20040;-84
2023/08/29 00:49:07;;;;;;;2.63;0.55;;;;;;;;;;5041007;28;20120;-84
2023/08/29 00:51:33;;;;;;;2.25;1.15;;;;;;;;;;5040358;28;20128;-84
2023/08/29 00:54:00;;;;;;;1.20;0.80;;;;;;;;;;5044257;28;20025;-83
2023/08/29 00:56:26;;;;;;;2.40;1.00;;;;;;;;;;5042459;28;20025;-84
2023/08/29 00:58:53;;;;;;;1.00;0.77;;;;;;;;;;5045428;28;20043;-84
2023/08/29 01:01:19;;;;;;;1.30;0.82;;;;;;;;;;5033178;28;20029;-84
2023/08/29 01:03:46;;;;;;;2.13;0.68;;;;;;;;;;5041084;28;20448;-84
2023/08/29 01:06:12;;;;;;;4.85;0.60;;;;;;;;;;5038714;28;20053;-83
2023/08/29 01:08:38;;;;;;;2.22;1.00;;;;;;;;;;5043870;28;20054;-84
2023/08/29 01:11:22;;;;;;;1.27;0.50;;;;;;;;;;5045843;28;20028;-84
2023/08/29 01:13:48;;;;;;;1.08;0.68;;;;;;;;;;5050988;28;20032;-84
2023/08/29 01:16:16;;;;;;;1.45;0.80;;;;;;;;;;5049813;28;20036;-84
2023/08/29 01:18:44;;;;;;;1.10;0.85;;;;;;;;;;5047302;28;20041;-84
2023/08/29 01:21:18;;;;;;;2.33;1.05;;;;;;;;;;5044148;28;20032;-84
2023/08/29 01:23:45;;;;;;;2.75;1.00;;;;;;;;;;5039547;28;20120;-84
2023/08/29 01:26:15;;;;;;;1.55;0.82;;;;;;;;;;5045542;28;20063;-84
2023/08/29 01:28:42;;;;;;;2.63;0.88;;;;;;;;;;5032636;28;20029;-84
2023/08/29 01:31:09;;;;;;;2.58;0.73;;;;;;;;;;5039777;28;20041;-84
2023/08/29 01:33:35;;;;;;;1.70;0.98;;;;;;;;;;5035110;28;20503;-84
2023/08/29 01:36:03;;;;;;;1.65;0.90;;;;;;;;;;5036351;28;20112;-82
2023/08/29 01:38:29;;;;;;;1.63;1.10;;;;;;;;;;5046277;28;20506;-84
2023/08/29 01:40:55;;;;;;;1.80;0.75;;;;;;;;;;5044400;28;20033;-84
2023/08/29 01:43:21;;;;;;;2.17;0.93;;;;;;;;;;5045308;28;20022;-84
2023/08/29 01:45:46;;;;;;;2.10;0.95;;;;;;;;;;5052139;28;20483;-84
2023/08/29 01:48:13;;;;;;;2.92;1.15;;;;;;;;;;5052590;28;20059;-84
2023/08/29 01:50:39;;;;;;;2.05;1.02;;;;;;;;;;5046211;28;20028;-85
2023/08/29 01:53:05;;;;;;;3.58;1.00;;;;;;;;;;5045835;28;20051;-84
2023/08/29 01:55:32;;;;;;;4.13;1.20;;;;;;;;;;5043918;28;20733;-84
2023/08/29 01:57:59;;;;;;;3.42;1.13;;;13.70;99.90;;;;;;5045636;28;20025;-85
2023/08/29 02:00:25;;;;;;;1.63;0.90;;;14.10;99.90;;;;;;5045054;28;20029;-83
2023/08/29 02:02:51;;;;;;;1.65;1.02;;;;;;;;;;5045693;28;20036;-84
2023/08/29 02:05:17;;;;;;;2.75;1.05;;;;;;;;;;5049136;28;20115;-84
2023/08/29 02:07:43;;;;;;;0.82;0.68;;;;;;;;;;5043759;28;20037;-84
2023/08/29 02:10:10;;;;;;;1.88;0.88;;;;;;;;;;5046467;28;20036;-82
2023/08/29 02:12:36;;;;;;;3.15;1.52;;;;;;;;;;5038101;28;20035;-82
2023/08/29 02:15:02;;;;;;;2.55;0.90;;;;;;;;;;5039514;28;20045;-84
2023/08/29 02:17:28;;;;;;;2.13;0.80;;;;;;;;;;5034533;28;20045;-83
2023/08/29 02:19:54;;;;;;;2.42;0.90;;;;;;;;;;5044377;28;20032;-83
2023/08/29 02:22:20;;;;;;;1.35;0.63;;;;;;;;;;5037983;28;20056;-83
2023/08/29 02:24:47;;;;;;;2.13;1.00;;;;;;;;;;5045512;28;20031;-82
2023/08/29 02:27:13;;;;;;;2.13;1.08;;;;;;;;;;5045525;28;20039;-83
2023/08/29 02:29:39;;;;;;;1.45;0.93;;;;;;;;;;5039715;28;20025;-84
2023/08/29 02:32:05;;;;;;;2.00;1.25;;;14.10;99.90;;;;;;5045588;28;20044;-84
2023/08/29 02:34:31;;;;;;;1.75;1.00;;;;;;;;;;5047268;28;20025;-84
2023/08/29 02:36:57;;;;;;;2.13;1.13;;;;;;;;;;5043962;28;20033;-84
2023/08/29 02:39:23;;;;;;;1.95;1.15;;;;;;;;;;5049730;28;20047;-85
2023/08/29 02:41:49;;;;;;;1.30;1.00;;;;;;;;;;5043513;28;20037;-86
2023/08/29 02:44:15;;;;;;;2.60;0.90;;;;;;;;;;5038816;28;20030;-83
2023/08/29 02:46:41;;;;;;;4.43;1.10;;;;;;;;;;5046441;28;20076;-83
2023/08/29 02:49:07;;;;;;;2.15;1.23;;;;;;;;;;5042478;28;20033;-83
2023/08/29 02:51:33;;;;;;;1.90;1.13;;;;;;;;;;5043453;28;20021;-84
2023/08/29 02:53:59;;;;;;;2.42;1.33;;;;;;;;;;5040110;28;20048;-83
2023/08/29 02:56:25;;;;;;;1.45;0.68;;;;;;;;;;5044399;28;20035;-83
2023/08/29 02:58:52;;;;;;;1.58;1.02;;;;;;;;;;5046915;28;20507;-84
2023/08/29 03:01:17;;;;;;;2.75;1.10;;;14.10;99.90;;;;;;5047632;28;20037;-84
2023/08/29 03:03:43;;;;;;;2.33;1.00;;;;;;;;;;5046344;28;20502;-84
2023/08/29 03:06:09;;;;;;;3.08;1.02;;;;;;;;;;5043193;28;20029;-83
2023/08/29 03:08:35;;;;;;;3.58;1.17;;;;;;;;;;5044275;28;20032;-82
2023/08/29 03:11:04;;;;;;;1.98;0.90;;;;;;;;;;5044331;28;20033;-83
2023/08/29 03:13:31;;;;;;;2.53;1.02;;;;;;;;;;5042323;28;20021;-82
2023/08/29 03:15:58;;;;;;;3.15;0.80;;;14.10;99.90;;;;;;5048016;28;20041;-83
2023/08/29 03:18:24;;;;;;;1.70;0.80;;;;;;;;;;5045452;28;20672;-84
2023/08/29 03:20:50;;;;;;;6.75;1.23;;;;;;;;;;5041181;28;20036;-84
2023/08/29 03:23:16;;;;;;;1.05;0.80;;;;;;;;;;5039051;28;20025;-83
2023/08/29 03:25:42;;;;;;;1.85;1.02;;;;;;;;;;5043416;28;20391;-83
2023/08/29 03:28:08;;;;;;;1.88;1.15;;;;;;;;;;5046905;28;20017;-85
2023/08/29 03:30:34;;;;;;;2.28;1.15;;;;;;;;;;5043784;28;20025;-84
2023/08/29 03:33:00;;;;;;;1.23;0.80;;;;;;;;;;5046148;28;20025;-84
2023/08/29 03:35:26;;;;;;;3.08;0.88;;;;;;;;;;5040554;28;20042;-84
2023/08/29 03:37:52;;;;;;;1.30;0.73;;;;;;;;;;5046056;28;20510;-84
2023/08/29 03:40:18;;;;;;;1.45;0.70;;;;;;;;;;5044299;28;20036;-84
2023/08/29 03:42:43;;;;;;;2.25;1.20;;;;;;;;;;5044303;28;20032;-83
2023/08/29 03:45:09;;;;;;;3.05;1.30;;;;;;;;;;5042674;28;21403;-84
2023/08/29 03:47:37;;;;;;;1.38;0.75;;;14.00;99.90;;;;;;5049904;28;20025;-83
2023/08/29 03:50:02;;;;;;;3.00;1.15;;;13.30;99.90;;;;;;5042476;28;20073;-82
2023/08/29 03:52:29;;;;;;;6.53;1.30;;;;;;;;;;5044536;28;20024;-83
2023/08/29 03:54:55;;;;;;;1.70;1.02;;;;;;;;;;5041065;28;20542;-84
2023/08/29 03:57:22;;;;;;;2.53;1.23;;;;;;;;;;5038654;28;20048;-83
2023/08/29 03:59:48;;;;;;;3.08;1.40;;;;;;;;;;5029189;28;20438;-84
2023/08/29 04:02:14;;;;;;;1.65;1.10;;;;;;;;;;5030712;28;20025;-84
2023/08/29 04:04:44;;;;;;;1.83;1.42;;;;;;;;;;5045985;28;20017;-84
2023/08/29 04:07:09;;;;;;;2.17;1.23;;;;;;;;;;5046177;28;20079;-84
2023/08/29 04:09:35;;;;;;;2.03;1.20;;;;;;;;;;5042431;28;20071;-83
2023/08/29 04:12:01;;;;;;;4.60;1.75;;;;;;;;;;5057770;28;20019;-83
2023/08/29 04:14:27;;;;;;;10.65;1.13;;;;;;;;;;5060168;28;20037;-84
2023/08/29 04:16:53;;;;;;;2.15;1.23;;;;;;;;;;5048905;28;20029;-82
2023/08/29 04:19:20;;;;;;;3.83;1.15;;;;;;;;;;5050356;28;20028;-83
2023/08/29 04:21:46;;;;;;;2.83;1.48;;;;;;;;;;5042315;28;20036;-83
2023/08/29 04:24:12;;;;;;;8.45;1.73;;;;;;;;;;5046801;28;20029;-83
2023/08/29 04:26:38;;;;;;;2.85;1.48;;;;;;;;;;5041301;28;20097;-80
2023/08/29 04:29:04;;;;;;;3.28;2.15;;;;;;;;;;5042465;28;20036;-82
2023/08/29 04:31:30;;;;;;;1.95;1.15;;;;;;;;;;5045328;28;20029;-82
2023/08/29 04:33:56;;;;;;;3.08;1.70;;;;;;;;;;5047890;28;20029;-82
2023/08/29 04:36:22;;;;;;;3.22;1.45;;;;;;;;;;5041186;28;20745;-82
2023/08/29 04:38:48;;;;;;;2.25;1.08;;;;;;;;;;5048597;28;20037;-82
2023/08/29 04:41:14;;;;;;;2.05;1.48;;;;;;;;;;5040228;28;20040;-83
2023/08/29 04:43:40;;;;;;;2.83;1.48;;;;;;;;;;5034223;28;20164;-83
2023/08/29 04:46:09;;;;;;;3.40;1.85;;;;;;;;;;5029687;28;20120;-83
2023/08/29 04:48:36;;;;;;;5.55;1.95;;;;;;;;;;5046728;28;20025;-83
2023/08/29 04:51:04;;;;;;;4.82;1.55;;;;;;;;;;5046606;28;20027;-83
2023/08/29 04:53:30;;;;;;;2.42;1.60;;;;;;;;;;5049466;28;20026;-83
2023/08/29 04:56:00;;;;;;;2.95;1.70;;;;;;;;;;5037900;28;20029;-83
2023/08/29 04:58:26;;;;;;;3.00;1.70;;;;;;;;;;5052526;28;20052;-82
2023/08/29 05:00:52;;;;;;;3.92;1.50;;;;;;;;;;5049126;28;20083;-81
2023/08/29 05:03:18;;;;;;;2.15;1.27;;;;;;;;;;5038230;28;20017;-82
2023/08/29 05:05:48;;;;;;;3.55;1.83;;;;;;;;;;5037463;28;20041;-80
2023/08/29 05:08:14;;;;;;;2.28;1.55;;;;;;;;;;5037854;28;20148;-80
2023/08/29 05:10:41;;;;;;;11.32;1.35;;;;;;;;;;5040573;28;20112;-81
2023/08/29 05:13:07;;;;;;;2.10;1.50;;;;;;;;;;5036116;28;20039;-80
2023/08/29 05:15:33;;;;;;;2.72;1.33;;;;;;;;;;5040556;28;20029;-80
2023/08/29 05:17:59;;;;;;;2.47;1.65;;;;;;;;;;5037048;28;20072;-80
2023/08/29 05:20:25;;;;;;;2.45;1.55;;;;;;;;;;5038777;28;20045;-81
2023/08/29 05:22:51;;;;;;;3.65;2.00;;;;;;;;;;5038984;28;20029;-80
2023/08/29 05:25:17;;;;;;;2.92;1.63;;;13.50;99.90;;;;;;5041294;28;20331;-81
2023/08/29 05:27:42;;;;;;;2.65;1.60;;;;;;;;;;5040753;28;20567;-81
2023/08/29 05:30:09;;;;;;;2.75;1.52;;;;;;;;;;5039660;28;20029;-81
2023/08/29 05:32:37;;;;;;;3.60;1.50;;;;;;;;;;5041675;28;20037;-81
2023/08/29 05:35:03;;;;;;;3.30;1.55;;;;;;;;;;5044777;28;20043;-81
2023/08/29 05:37:29;;;;;;;3.70;1.60;;;;;;;;;;5043293;28;20075;-81
2023/08/29 05:39:55;;;;;;;2.42;1.63;;;;;;;;;;5039872;28;20483;-82
2023/08/29 05:42:21;;;;;;;4.57;1.90;;;;;;;;;;5032884;28;20036;-82
2023/08/29 05:44:47;;;;;;;2.92;1.77;;;;;;;;;;5035062;28;20029;-82
2023/08/29 05:47:13;;;;;;;7.13;2.33;;;;;;;;;;5041420;28;20032;-82
2023/08/29 05:49:39;;;;;;;3.67;1.77;;;;;;;;;;5026261;28;20029;-82
2023/08/29 05:52:05;;;;;;;2.45;1.63;;;;;;;;;;5034979;28;20037;-82
2023/08/29 05:54:31;;;;;;;5.97;2.58;;;;;;;;;;5037408;28;20034;-82
2023/08/29 05:56:57;;;;;;;3.97;2.15;;;;;;;;;;5040397;28;20059;-81
2023/08/29 05:59:24;;;;;;;4.05;2.70;;;;;;;;;;5045211;28;20026;-82
2023/08/29 06:01:50;;;;;;;5.28;1.95;;;;;;;;;;5050582;28;20025;-82
2023/08/29 06:04:16;;;;;;;4.30;1.70;;;;;;;;;;5049416;28;20036;-83
2023/08/29 06:06:43;;;;;;;2.72;1.73;;;;;;;;;;5042527;28;20043;-82
2023/08/29 06:09:10;;;;;;;4.22;2.55;;;;;;;;;;5043215;28;20049;-82
2023/08/29 06:11:36;;;;;;;3.22;2.13;;;;;;;;;;5047009;28;20028;-82
2023/08/29 06:14:02;;;;;;;4.13;2.22;;;;;;;;;;5044186;28;20718;-83
2023/08/29 06:16:28;;;;;;;4.43;1.67;;;;;;;;;;5045212;28;20032;-82
2023/08/29 06:18:54;;;;;;;5.90;2.10;;;;;;;;;;5042918;28;20586;-82
2023/08/29 06:21:20;;;;;;;3.78;2.00;;;;;;;;;;5040216;28;20071;-82
2023/08/29 06:23:46;;;;;;;2.78;1.48;;;;;;;;;;5045448;28;20037;-82
2023/08/29 06:26:12;;;;;;;5.30;1.65;;;;;;;;;;5047898;28;20133;-82
2023/08/29 06:28:38;;;;;;;4.60;2.40;;;;;;;;;;5045561;28;20463;-82
2023/08/29 06:31:08;;;;;;;49.33;14.13;;;14.70;99.90;;;;;;5042195;28;20040;-82
2023/08/29 06:33:34;;;;;;;43.65;15.68;;;;;;;;;;5024204;28;20744;-82
2023/08/29 06:36:00;;;;;;;30.92;9.15;;;;;;;;;;5044079;28;20021;-82
2023/08/29 06:38:26;;;;;;;12.85;5.88;;;;;;;;;;5044133;28;20048;-82
2023/08/29 06:40:56;;;;;;;8.70;3.40;;;;;;;;;;5050126;28;20442;-82
2023/08/29 06:43:22;;;;;;;3.38;2.35;;;;;;;;;;5037189;28;20037;-82
2023/08/29 06:45:48;;;;;;;3.53;1.77;;;;;;;;;;5041804;28;20114;-82
2023/08/29 06:48:14;;;;;;;7.43;2.45;;;;;;;;;;5047992;28;20076;-82
2023/08/29 06:50:40;;;;;;;2.53;1.48;;;;;;;;;;5048159;28;20029;-81
2023/08/29 06:53:06;;;;;;;3.17;2.00;;;;;;;;;;5044345;28;20036;-82
2023/08/29 06:55:34;;;;;;;3.83;1.83;;;;;;;;;;5044171;28;20049;-82
2023/08/29 06:58:00;;;;;;;2.40;1.98;;;;;;;;;;5035477;28;20124;-83
2023/08/29 07:00:26;;;;;;;4.22;2.45;;;;;;;;;;5042541;28;20522;-82
2023/08/29 07:02:52;;;;;;;3.70;1.90;;;;;;;;;;5038661;28;20033;-82
2023/08/29 07:05:19;;;;;;;2.78;1.67;;;;;;;;;;5042363;28;20032;-82
2023/08/29 07:07:45;;;;;;;2.83;1.23;;;;;;;;;;5041519;28;20116;-83
2023/08/29 07:10:11;;;;;;;2.38;1.88;;;;;;;;;;5040069;28;20123;-82
2023/08/29 07:12:37;;;;;;;2.95;1.73;;;;;;;;;;5039417;28;20037;-81
2023/08/29 07:15:03;;;;;;;9.45;4.72;;;;;;;;;;5043187;28;20462;-82
2023/08/29 07:17:29;;;;;;;23.42;12.05;;;;;;;;;;5042470;28;20020;-81
2023/08/29 07:19:55;;;;;;;8.15;4.15;;;;;;;;;;5041392;28;20021;-81
2023/08/29 07:22:21;;;;;;;3.72;2.58;;;;;;;;;;5039817;28;20099;-81
2023/08/29 07:24:47;;;;;;;2.85;1.70;;;;;;;;;;5044360;28;20519;-81
2023/08/29 07:27:13;;;;;;;3.67;1.65;;;;;;;;;;5044802;28;20029;-81
2023/08/29 07:29:41;;;;;;;3.13;1.98;;;;;;;;;;5043956;28;20437;-81
2023/08/29 07:32:07;;;;;;;3.17;1.67;;;;;;;;;;5043556;28;20025;-82
2023/08/29 07:34:34;;;;;;;5.97;2.40;;;;;;;;;;5039198;28;20029;-82
2023/08/29 07:36:59;;;;;;;7.30;3.17;;;;;;;;;;5044226;28;20048;-82
2023/08/29 07:39:26;;;;;;;5.28;2.85;;;;;;;;;;5042931;28;20057;-81
2023/08/29 07:41:52;;;;;;;4.15;2.55;;;;;;;;;;5039815;28;20044;-81
2023/08/29 07:44:17;;;;;;;4.68;2.25;;;;;;;;;;5044418;28;20033;-81
2023/08/29 07:46:43;;;;;;;2.45;1.70;;;;;;;;;;5044366;28;20035;-81
2023/08/29 07:49:13;;;;;;;2.45;1.48;;;;;;;;;;5046643;28;20025;-81
2023/08/29 07:51:40;;;;;;;5.13;2.17;;;;;;;;;;5046489;28;20541;-82
2023/08/29 07:54:06;;;;;;;4.53;2.55;;;;;;;;;;5040740;28;20021;-81
2023/08/29 07:56:32;;;;;;;6.30;2.58;;;;;;;;;;5031187;28;20026;-81
2023/08/29 07:58:58;;;;;;;7.13;2.65;;;;;;;;;;5037896;28;20056;-81
2023/08/29 08:01:24;;;;;;;5.47;2.22;;;;;;;;;;5041101;28;20028;-82
2023/08/29 08:03:50;;;;;;;12.07;5.97;;;;;;;;;;5041913;28;20068;-80
2023/08/29 08:06:16;;;;;;;9.00;3.30;;;;;;;;;;5041887;28;20091;-82
2023/08/29 08:08:42;;;;;;;4.80;2.70;;;;;;;;;;5038472;28;20032;-84
2023/08/29 08:11:08;;;;;;;2.30;1.42;;;16.50;99.90;;;;;;5042231;28;20025;-82
2023/08/29 08:13:35;;;;;;;3.80;1.00;;;;;;;;;;5044155;28;20033;-80
2023/08/29 08:16:02;;;;;;;4.03;1.58;;;17.10;99.90;;;;;;5034347;28;20977;-81
2023/08/29 08:18:28;;;;;;;10.75;3.55;;;;;;;;;;5042067;28;20025;-81
2023/08/29 08:20:54;;;;;;;5.25;2.33;;;;;;;;;;5059011;28;20183;-80
2023/08/29 08:23:20;;;;;;;5.90;2.50;;;;;;;;;;5056970;28;20040;-80
2023/08/29 08:25:45;;;;;;;2.75;1.70;;;;;;;;;;5042291;28;20068;-81
2023/08/29 08:28:13;;;;;;;5.63;2.80;;;;;;;;;;5051355;28;20151;-81
2023/08/29 08:30:39;;;;;;;2.65;1.27;;;;;;;;;;5048334;28;20018;-81
2023/08/29 08:33:05;;;;;;;5.07;2.20;;;;;;;;;;5041826;28;20087;-80
2023/08/29 08:35:32;;;;;;;5.28;2.30;;;;;;;;;;5029033;28;20043;-81
2023/08/29 08:37:58;;;;;;;4.18;2.25;;;;;;;;;;5029094;28;20057;-83
2023/08/29 08:40:24;;;;;;;3.22;1.65;;;;;;;;;;5038023;28;20065;-81
2023/08/29 08:42:50;;;;;;;2.67;1.42;;;;;;;;;;5039823;28;20036;-82
2023/08/29 08:45:17;;;;;;;4.93;2.45;;;;;;;;;;5039873;28;20094;-80
2023/08/29 08:47:43;;;;;;;2.17;1.20;;;;;;;;;;5037460;28;20625;-80
2023/08/29 08:50:09;;;;;;;4.70;2.28;;;16.90;99.90;;;;;;5037776;28;20075;-80
2023/08/29 08:52:36;;;;;;;2.10;1.30;;;;;;;;;;5042829;28;20029;-82
2023/08/29 08:55:02;;;;;;;2.42;1.65;;;;;;;;;;5041650;28;20087;-82
2023/08/29 08:57:28;;;;;;;2.10;1.13;;;;;;;;;;5038335;28;20450;-82
2023/08/29 08:59:55;;;;;;;1.50;1.10;;;;;;;;;;5038796;28;20710;-83
2023/08/29 09:02:21;;;;;;;1.75;1.10;;;;;;;;;;5036681;28;20128;-83
2023/08/29 09:04:47;;;;;;;3.17;0.80;;;;;;;;;;5035073;28;20037;-82
2023/08/29 09:07:13;;;;;;;4.43;1.33;;;;;;;;;;5034829;28;20040;-82
2023/08/29 09:09:39;;;;;;;3.55;1.08;;;;;;;;;;5035247;28;20116;-82
2023/08/29 09:12:05;;;;;;;1.60;1.17;;;;;;;;;;5039671;28;20059;-83
2023/08/29 09:14:32;;;;;;;4.40;1.55;;;;;;;;;;5034590;28;20036;-79
2023/08/29 09:16:59;;;;;;;1.65;0.80;;;;;;;;;;5016597;28;20055;-82
2023/08/29 09:19:25;;;;;;;8.10;1.10;;;;;;;;;;5035117;28;20025;-82
2023/08/29 09:21:51;;;;;;;6.10;1.17;;;;;;;;;;5036775;28;20037;-80
2023/08/29 09:24:36;;;;;;;1.33;0.88;;;;;;;;;;5022319;28;20045;-81
2023/08/29 09:27:07;;;;;;;2.50;1.10;;;;;;;;;;5026593;28;20032;-81
2023/08/29 09:29:33;;;;;;;2.45;1.00;;;;;;;;;;5037715;28;20033;-83
2023/08/29 09:32:00;;;;;;;3.08;1.00;;;;;;;;;;5031647;28;20038;-81
2023/08/29 09:34:26;;;;;;;1.92;1.10;;;;;;;;;;5010134;28;20778;-81
2023/08/29 09:36:53;;;;;;;3.38;1.27;;;;;;;;;;5007924;28;20029;-83
2023/08/29 09:39:19;;;;;;;3.70;1.70;;;;;;;;;;5009869;28;20029;-82
2023/08/29 09:41:57;;;;;;;2.47;1.20;;;;;;;;;;5016227;28;20033;-83
2023/08/29 09:44:23;;;;;;;3.13;1.25;;;;;;;;;;5008807;28;20025;-82
2023/08/29 09:46:49;;;;;;;1.25;0.82;;;;;;;;;;5021423;28;20497;-83
2023/08/29 09:49:15;;;;;;;2.20;1.23;;;;;;;;;;5011836;28;20049;-82
2023/08/29 09:51:41;;;;;;;2.30;1.13;;;;;;;;;;4990528;28;20839;-82
2023/08/29 09:54:09;;;;;;;2.35;1.15;;;;;;;;;;5008996;28;20089;-83
2023/08/29 09:56:38;;;;;;;1.80;0.93;;;;;;;;;;5019184;28;20067;-83
2023/08/29 09:59:11;;;;;;;3.67;1.17;;;;;;;;;;5017461;28;20098;-83
2023/08/29 10:01:39;;;;;;;2.28;0.77;;;;;;;;;;5018468;28;20025;-83
2023/08/29 10:04:06;;;;;;;1.00;0.73;;;;;;;;;;5009483;28;20760;-84
2023/08/29 10:06:33;;;;;;;1.98;0.90;;;;;;;;;;5016133;28;20157;-83
2023/08/29 10:09:00;;;;;;;1.17;0.77;;;;;;;;;;5028860;28;21127;-83
2023/08/29 10:11:27;;;;;;;4.32;1.48;;;;;;;;;;5043220;28;20074;-81
2023/08/29 10:13:53;;;;;;;3.88;1.40;;;;;;;;;;5037931;28;20084;-82
2023/08/29 10:16:19;;;;;;;1.83;0.98;;;18.10;99.90;;;;;;5032638;28;20427;-82
2023/08/29 10:18:46;;;;;;;4.22;0.57;;;;;;;;;;5038543;28;20535;-84
2023/08/29 10:21:12;;;;;;;2.75;0.80;;;;;;;;;;5032393;28;20182;-83
2023/08/29 10:23:39;;;;;;;1.77;1.25;;;17.90;99.90;;;;;;5033526;28;20533;-83
2023/08/29 10:26:05;;;;;;;2.47;1.15;;;;;;;;;;5033902;28;20958;-83
2023/08/29 10:28:31;;;;;;;1.17;0.80;;;;;;;;;;5040013;28;20036;-84
2023/08/29 10:31:00;;;;;;;0.95;0.70;;;;;;;;;;5040845;28;20025;-83
2023/08/29 10:33:26;;;;;;;3.75;0.70;;;;;;;;;;5036427;28;20463;-83
2023/08/29 10:35:52;;;;;;;2.92;0.80;;;;;;;;;;5041143;28;20036;-85
2023/08/29 10:38:19;;;;;;;1.17;0.63;;;;;;;;;;5043685;28;20095;-82
2023/08/29 10:40:46;;;;;;;0.75;0.68;;;;;;;;;;5048804;28;20055;-82
2023/08/29 10:43:18;;;;;;;3.40;0.68;;;19.50;99.90;;;;;;5041485;28;20092;-83
2023/08/29 10:45:57;;;;;;;4.05;0.43;;;19.50;99.90;;;;;;5046445;28;20029;-84
2023/08/29 10:48:30;;;;;;;0.73;0.43;;;;;;;;;;5050958;28;20071;-80
2023/08/29 10:51:22;;;;;;;2.45;0.57;;;;;;;;;;5057926;28;20173;-82
2023/08/29 10:53:48;;;;;;;0.82;0.50;;;;;;;;;;5059360;28;20045;-83
2023/08/29 10:56:17;;;;;;;0.98;0.52;;;;;;;;;;5053025;28;20040;-80
2023/08/29 10:58:44;;;;;;;1.40;0.60;;;;;;;;;;5047323;28;20025;-80
2023/08/29 11:01:30;;;;;;;1.15;0.60;;;;;;;;;;5056862;28;20422;-81
2023/08/29 11:03:58;;;;;;;0.35;0.30;;;;;;;;;;5044877;28;20029;-80
2023/08/29 11:06:25;;;;;;;2.10;0.55;;;19.20;99.90;;;;;;5045945;28;20078;-82
2023/08/29 11:09:20;;;;;;;2.28;0.60;;;20.30;99.90;;;;;;5057024;28;20041;-81
2023/08/29 11:12:05;;;;;;;1.77;0.43;;;;;;;;;;5057314;28;20025;-82
2023/08/29 11:14:53;;;;;;;0.40;0.20;;;20.30;99.90;;;;;;5046757;28;20028;-82
2023/08/29 11:17:23;;;;;;;2.83;0.57;;;;;;;;;;5052852;28;20059;-82
2023/08/29 11:19:56;;;;;;;1.20;0.30;;;20.20;99.90;;;;;;5049256;28;20074;-83
2023/08/29 11:22:28;;;;;;;1.13;0.57;;;20.30;99.90;;;;;;5051897;28;20044;-81
2023/08/29 11:24:55;;;;;;;1.40;0.47;;;;;;;;;;5045874;28;20024;-82
2023/08/29 11:27:22;;;;;;;4.15;0.90;;;;;;;;;;5055500;28;20028;-83
2023/08/29 11:29:48;;;;;;;1.33;0.55;;;;;;;;;;5044735;28;20103;-83
2023/08/29 11:32:16;;;;;;;1.38;0.63;;;20.20;99.90;;;;;;5039747;28;20040;-84
2023/08/29 11:34:43;;;;;;;1.95;0.40;;;;;;;;;;5041008;28;20116;-85
2023/08/29 11:37:11;;;;;;;3.35;0.40;;;;;;;;;;5034021;28;20085;-82
2023/08/29 11:39:38;;;;;;;1.25;0.50;;;;;;;;;;5044336;28;20031;-84
2023/08/29 11:42:04;;;;;;;3.22;0.68;;;;;;;;;;5041217;28;20028;-85
2023/08/29 11:44:34;;;;;;;2.05;0.40;;;;;;;;;;5040035;28;20033;-85
2023/08/29 11:47:00;;;;;;;1.23;0.45;;;;;;;;;;5042775;28;20026;-84
2023/08/29 11:49:26;;;;;;;1.45;0.57;;;;;;;;;;5046298;28;20175;-84
2023/08/29 11:51:53;;;;;;;2.40;0.52;;;;;;;;;;5040218;28;20813;-87
2023/08/29 11:54:41;;;;;;;2.25;0.80;;;;;;;;;;5036035;28;20468;-83
2023/08/29 11:57:07;;;;;;;0.80;0.30;;;;;;;;;;5041397;28;20030;-84
2023/08/29 11:59:34;;;;;;;1.98;0.40;;;;;;;;;;5043863;28;20025;-83
2023/08/29 12:02:00;;;;;;;1.33;0.40;;;;;;;;;;5048381;28;20072;-83
2023/08/29 12:04:27;;;;;;;0.85;0.50;;;;;;;;;;5039541;28;20033;-84
2023/08/29 12:07:11;;;;;;;0.68;0.40;;;21.00;99.90;;;;;;5041074;28;20135;-83
2023/08/29 12:09:39;;;;;;;1.08;0.68;;;;;;;;;;5049589;28;20610;-84
2023/08/29 12:12:06;;;;;;;0.80;0.30;;;21.50;99.90;;;;;;5045381;28;20135;-84
2023/08/29 12:14:48;;;;;;;2.92;0.65;;;21.00;99.90;;;;;;5046865;28;20028;-84
2023/08/29 12:17:14;;;;;;;1.40;0.20;;;;;;;;;;5040891;28;20040;-84
2023/08/29 12:19:40;;;;;;;2.00;0.47;;;;;;;;;;5033162;28;20045;-83
2023/08/29 12:22:06;;;;;;;2.45;1.08;;;;;;;;;;5040007;28;20056;-83
2023/08/29 12:24:32;;;;;;;3.25;1.00;;;;;;;;;;5041121;28;20045;-83
2023/08/29 12:26:59;;;;;;;1.92;0.90;;;;;;;;;;5044354;28;20536;-83
2023/08/29 12:29:25;;;;;;;0.50;0.20;;;;;;;;;;5041308;28;20542;-83
2023/08/29 12:31:51;;;;;;;1.05;0.35;;;21.00;99.90;;;;;;5042303;28;20039;-82
2023/08/29 12:34:17;;;;;;;2.10;0.60;;;;;;;;;;5050331;28;20052;-83
2023/08/29 12:36:43;;;;;;;2.47;0.57;;;;;;;;;;5054935;28;20029;-84
2023/08/29 12:39:09;;;;;;;1.00;0.38;;;20.80;99.90;;;;;;5050080;28;20031;-81
2023/08/29 12:41:36;;;;;;;1.35;0.70;;;;;;;;;;5063637;28;20036;-82
2023/08/29 12:44:03;;;;;;;1.15;0.63;;;;;;;;;;5050532;28;20152;-85
2023/08/29 12:46:30;;;;;;;1.40;0.57;;;;;;;;;;5053580;28;20032;-85
2023/08/29 12:48:56;;;;;;;1.05;0.50;;;;;;;;;;5045120;28;20052;-85
2023/08/29 12:51:22;;;;;;;2.20;0.68;;;;;;;;;;5046374;28;20028;-85
2023/08/29 12:53:49;;;;;;;2.17;0.95;;;;;;;;;;5048847;28;20029;-85
2023/08/29 12:56:15;;;;;;;1.65;0.60;;;;;;;;;;5043876;28;20040;-85
2023/08/29 12:58:41;;;;;;;5.97;0.60;;;;;;;;;;5045217;28;20029;-85
2023/08/29 13:01:07;;;;;;;1.38;0.55;;;;;;;;;;5051852;28;20203;-84
2023/08/29 13:03:33;;;;;;;0.98;0.55;;;;;;;;;;5041734;28;22464;-86
2023/08/29 13:05:59;;;;;;;1.50;0.70;;;;;;;;;;5044965;28;20029;-85
2023/08/29 13:08:25;;;;;;;0.60;0.35;;;;;;;;;;5036788;28;20025;-83
2023/08/29 13:10:51;;;;;;;2.50;0.70;;;;;;;;;;5045961;28;20163;-85
2023/08/29 13:13:17;;;;;;;1.25;0.65;;;;;;;;;;5042789;28;20048;-82
2023/08/29 13:15:43;;;;;;;0.80;0.30;;;;;;;;;;5045461;28;20021;-84
2023/08/29 13:18:10;;;;;;;0.50;0.30;;;;;;;;;;5031984;28;20551;-84
2023/08/29 13:20:36;;;;;;;1.10;0.68;;;;;;;;;;5032229;28;20082;-83
2023/08/29 13:23:02;;;;;;;0.70;0.22;;;;;;;;;;5041189;28;20041;-88
2023/08/29 13:25:28;;;;;;;1.83;1.15;;;;;;;;;;5039076;28;20643;-86
2023/08/29 13:27:55;;;;;;;1.52;0.70;;;;;;;;;;5036967;28;20056;-83
2023/08/29 13:30:21;;;;;;;0.77;0.30;;;;;;;;;;5039288;28;24489;-85
2023/08/29 13:32:48;;;;;;;1.52;0.70;;;;;;;;;;5038758;28;20184;-84
2023/08/29 13:35:14;;;;;;;3.38;0.40;;;;;;;;;;5045805;28;20116;-84
2023/08/29 13:37:40;;;;;;;0.57;0.38;;;;;;;;;;5044916;28;20466;-84
2023/08/29 13:40:08;;;;;;;1.13;0.47;;;;;;;;;;5044540;28;20091;-86
2023/08/29 13:42:34;;;;;;;0.47;0.40;;;;;;;;;;5044662;28;20033;-84
2023/08/29 13:45:01;;;;;;;1.65;0.45;;;;;;;;;;5038284;28;20033;-86
2023/08/29 13:47:27;;;;;;;1.25;0.80;;;;;;;;;;5045922;28;20072;-84
2023/08/29 13:49:53;;;;;;;2.10;0.50;;;;;;;;;;5036669;28;20025;-81
2023/08/29 13:52:21;;;;;;;3.35;0.40;;;21.90;99.90;;;;;;5041678;28;20115;-86
2023/08/29 13:54:47;;;;;;;1.33;0.40;;;;;;;;;;5045515;28;20049;-82
2023/08/29 13:57:13;;;;;;;1.02;0.45;;;;;;;;;;5051914;28;20095;-83
2023/08/29 13:59:39;;;;;;;1.00;0.50;;;;;;;;;;5037529;28;20068;-84
2023/08/29 14:02:09;;;;;;;0.63;0.38;;;21.20;99.90;;;;;;5045559;28;20048;-83
2023/08/29 14:04:35;;;;;;;2.55;0.30;;;;;;;;;;5048297;28;20625;-79
2023/08/29 14:07:03;;;;;;;0.95;0.35;;;;;;;;;;5043992;28;20041;-86
2023/08/29 14:09:29;;;;;;;3.28;0.80;;;;;;;;;;5046395;28;20025;-87
2023/08/29 14:11:55;;;;;;;0.95;0.40;;;;;;;;;;5034562;28;20575;-84
2023/08/29 14:14:23;;;;;;;2.15;0.50;;;;;;;;;;5036156;28;20053;-81
2023/08/29 14:16:50;;;;;;;1.27;0.50;;;;;;;;;;5040204;28;20024;-83
2023/08/29 14:19:18;;;;;;;1.90;0.63;;;;;;;;;;5043284;28;20126;-84
2023/08/29 14:21:44;;;;;;;2.25;0.47;;;;;;;;;;5038173;28;20051;-85
2023/08/29 14:24:10;;;;;;;0.85;0.20;;;;;;;;;;5032985;28;20025;-85
2023/08/29 14:26:36;;;;;;;1.45;0.57;;;19.50;99.90;;;;;;5041918;28;20060;-85
2023/08/29 14:29:03;;;;;;;4.00;0.50;;;;;;;;;;5042219;28;20811;-83